KCAD/CAD METAR and TAF weather

Enter ICAO airport designator
Station Type Date Time Source
KCAD METAR 2020/07/15 05:15 UTC NOAA

KCAD 150515Z AUTO 18007KT 10SM CLR 22/14 A3005 RMK AO2 T02250142


Station Type Date Time Source
KCAD Decoded METAR 2020/07/15 05:15 UTC NOAA

Cadillac / Wexford County, MI, United States (KCAD) 44-17N 085-25W
Jul 15, 2020 - 01:15 AM EDT / 2020.07.15 0515 UTC
Wind: from the S (180 degrees) at 8 MPH (7 KT):0
Visibility: 10 mile(s):0
Sky conditions: clear
Temperature: 72.5 F (22.5 C)
Dew Point: 57.6 F (14.2 C)
Relative Humidity: 59%
Pressure (altimeter): 30.05 in. Hg (1017 hPa)
ob: KCAD 150515Z AUTO 18007KT 10SM CLR 22/14 A3005 RMK AO2 T02250142
cycle: 5

Station Type Date Time Source
KCAD TAF UTC NOAA

Error!

Example: see airport list